Time;durP1;ratioP1;P1;durP2;ratioP2;P2;SDS_P1;SDS_P2;PMS_P1;PMS_P2;Temp;Humidity;BMP_temperature;BMP_pressure;BME280_temperature;BME280_humidity;BME280_pressure;Samples;Min_cycle;Max_cycle;Signal;HPM_P1;HPM_P2
2022/08/22 00:01:23;;;;;;;10.80;6.67;;;;;;;-141.28;100.00;49086.03;5094384;28;20199;-74
2022/08/22 00:04:00;;;;;;;12.47;6.50;;;;;;;-141.28;100.00;49093.88;5093989;28;20200;-73
2022/08/22 00:06:40;;;;;;;8.17;6.40;;;;;;;-141.28;100.00;49109.59;5094295;28;20680;-77
2022/08/22 00:09:28;;;;;;;7.37;6.10;;;;;;;-141.28;100.00;49097.81;5094337;28;20210;-74
2022/08/22 00:12:04;;;;;;;10.30;6.50;;;;;;;-141.28;100.00;49137.06;5083867;28;20195;-75
2022/08/22 00:14:39;;;;;;;8.63;6.53;;;;;;;-141.28;100.00;49121.34;5094906;28;20201;-75
2022/08/22 00:17:23;;;;;;;10.03;6.30;;;;;;;-141.28;100.00;49160.59;5075706;28;20234;-75
2022/08/22 00:19:55;;;;;;;7.63;6.40;;;;;;;-141.28;100.00;49117.44;5080906;28;20600;-73
2022/08/22 00:22:30;;;;;;;9.23;5.90;;;;;;;-141.28;100.00;49074.25;5094246;28;20196;-74
2022/08/22 00:25:11;;;;;;;8.13;6.70;;;;;;;-141.28;100.00;49119.38;5094216;28;20257;-73
2022/08/22 00:27:46;;;;;;;10.93;6.80;;;;;;;-141.28;100.00;49105.66;5093319;28;20223;-75
2022/08/22 00:30:16;;;;;;;7.93;6.57;;;;;;;-141.28;100.00;49097.81;5092439;28;20191;-73
2022/08/22 00:32:47;;;;;;;11.30;8.27;;;;;;;-141.28;100.00;48987.94;5093848;28;20205;-74
2022/08/22 00:35:21;;;;;;;10.77;7.90;;;;;;;-141.28;100.00;49089.97;5093870;28;20293;-75
2022/08/22 00:38:01;;;;;;;11.80;9.00;;;;;;;-141.28;100.00;49127.25;5093291;28;20214;-75
2022/08/22 00:40:41;;;;;;;12.57;9.07;;;;;;;-141.28;100.00;49131.16;5105957;28;20661;-75
2022/08/22 00:43:25;;;;;;;13.30;8.37;;;;;;;-141.28;100.00;49170.41;5099383;28;20207;-75
2022/08/22 00:46:15;;;;;;;9.77;8.47;;;;;;;-141.28;100.00;49180.22;5093349;28;20681;-75
2022/08/22 00:49:11;;;;;;;10.50;8.57;;;;;;;-141.28;100.00;49254.78;5106676;28;20222;-73
2022/08/22 00:52:11;;;;;;;10.50;9.13;;;;;;;-141.28;100.00;49252.81;5106529;28;20728;-73
2022/08/22 00:55:13;;;;;;;13.17;9.67;;;;;;;-141.28;100.00;49266.56;5094834;28;20257;-75
2022/08/22 00:57:54;;;;;;;13.93;9.67;;;;;;;-141.28;100.00;49241.03;5099313;28;20558;-76
2022/08/22 01:00:23;;;;;;;15.03;9.67;;;;;;;-141.28;100.00;49117.44;5081850;28;20572;-74
2022/08/22 01:03:27;;;;;;;14.60;10.33;;;;;;;-141.28;100.00;49172.38;5092761;28;20192;-74
2022/08/22 01:06:12;;;;;;;14.30;10.87;;;;;;;-141.28;100.00;49109.59;5092706;28;20658;-76
2022/08/22 01:08:54;;;;;;;15.70;10.80;;;;;;;-141.28;100.00;48984.00;5092686;28;20559;-75
2022/08/22 01:11:49;;;;;;;15.13;11.67;;;;;;;-141.28;100.00;49099.78;5093452;28;20252;-77
2022/08/22 01:14:41;;;;;;;17.73;10.57;;;;;;;-141.28;100.00;49072.31;5094463;28;20191;-77
2022/08/22 01:17:40;;;;;;;17.03;11.00;;;;;;;-141.28;100.00;49137.06;5090273;28;20298;-73
2022/08/22 01:20:45;;;;;;;16.97;12.23;;;;;;;-141.28;100.00;49097.81;5072955;28;20249;-73
2022/08/22 01:23:40;;;;;;;15.63;12.37;;;;;;;-141.28;100.00;49113.50;5106884;28;20203;-74
2022/08/22 01:26:49;;;;;;;14.43;11.23;;;;;;;-141.28;100.00;49109.59;5092591;28;20268;-75
2022/08/22 01:30:01;;;;;;;15.77;11.73;;;;;;;-141.28;100.00;49186.09;5092617;28;20282;-75
2022/08/22 01:33:10;;;;;;;16.57;12.00;;;;;;;-141.28;100.00;49239.09;5090864;28;20674;-76
2022/08/22 01:36:12;;;;;;;15.87;11.90;;;;;;;-141.28;100.00;49152.75;5079214;28;20577;-75
2022/08/22 01:39:02;;;;;;;16.97;11.70;;;;;;;-141.28;100.00;49152.75;5104605;28;20580;-75
2022/08/22 01:41:56;;;;;;;16.27;11.93;;;;;;;-141.28;100.00;49062.50;5090541;28;20237;-75
2022/08/22 01:44:45;;;;;;;15.33;11.53;;;;;;;-141.28;100.00;49060.53;5091076;28;20257;-75
2022/08/22 01:47:17;;;;;;;16.60;11.43;;;;;;;-141.28;100.00;49023.25;5082461;28;20227;-74
2022/08/22 01:49:49;;;;;;;17.17;12.23;;;;;;;-141.28;100.00;48976.16;5096516;28;20199;-74
2022/08/22 01:52:28;;;;;;;19.17;12.10;;;;;;;-141.28;100.00;48964.38;5092647;28;20248;-75
2022/08/22 01:55:01;;;;;;;17.13;11.87;;;;;;;-141.28;100.00;49013.44;5105083;28;20206;-74
2022/08/22 01:57:28;;;;;;;14.13;11.50;;;;;;;-141.28;100.00;48968.31;5101817;28;20202;-76
2022/08/22 02:00:00;;;;;;;16.80;11.67;;;;;;;-141.28;100.00;48960.47;5108544;28;20572;-75
2022/08/22 02:02:45;;;;;;;14.60;11.30;;;;;;;-141.28;100.00;48991.84;5105648;28;20191;-74
2022/08/22 02:05:24;;;;;;;17.40;11.43;;;;;;;-141.28;100.00;49009.50;5091266;28;20210;-73
2022/08/22 02:08:00;;;;;;;15.13;10.70;;;;;;;-141.28;100.00;48987.94;5079876;28;20248;-75
2022/08/22 02:10:49;;;;;;;14.77;10.97;;;;;;;-141.28;100.00;49042.88;5091051;28;20662;-76
2022/08/22 02:13:32;;;;;;;14.00;10.20;;;;;;;-141.28;100.00;49038.94;5091287;28;20221;-74
2022/08/22 02:16:08;;;;;;;12.90;11.10;;;;;;;-141.28;100.00;49066.41;5091155;28;20213;-75
2022/08/22 02:18:57;;;;;;;13.77;10.90;;;;;;;-141.28;100.00;49082.13;5090747;28;20256;-75
2022/08/22 02:21:32;;;;;;;16.33;11.73;;;;;;;-141.28;100.00;49048.75;5102011;28;20198;-74
2022/08/22 02:24:05;;;;;;;18.07;11.80;;;;;;;-141.28;100.00;49031.09;5105662;28;20198;-74
2022/08/22 02:26:48;;;;;;;16.03;11.40;;;;;;;-141.28;100.00;49056.59;5090774;28;20195;-75
2022/08/22 02:29:21;;;;;;;17.13;10.83;;;;;;;-141.28;100.00;49050.72;5104014;28;20734;-74
2022/08/22 02:31:56;;;;;;;16.73;11.77;;;;;;;-141.28;100.00;49068.38;5104190;28;20201;-75
2022/08/22 02:34:36;;;;;;;17.77;12.00;;;;;;;-141.28;100.00;49091.91;5103606;28;20211;-75
2022/08/22 02:37:09;;;;;;;18.53;12.53;;;;;;;-141.28;100.00;49082.13;5093209;28;20198;-74
2022/08/22 02:39:39;;;;;;;17.73;12.50;;;;;;;-141.28;100.00;49070.34;5101380;28;20206;-77
2022/08/22 02:42:21;;;;;;;18.17;13.40;;;;;;;-141.28;100.00;49086.03;5100705;28;20694;-75
2022/08/22 02:44:57;;;;;;;14.70;12.13;;;;;;;-141.28;100.00;49074.25;5110084;28;20252;-74
2022/08/22 02:47:33;;;;;;;16.90;13.17;;;;;;;-141.28;100.00;49064.44;5110226;28;20229;-75
2022/08/22 02:50:07;;;;;;;18.03;13.27;;;;;;;-141.28;100.00;49025.22;5087031;28;20675;-75
2022/08/22 02:52:47;;;;;;;19.07;13.83;;;;;;;-141.28;100.00;49009.50;5091913;28;20624;-75
2022/08/22 02:55:18;;;;;;;17.93;13.37;;;;;;;-141.28;100.00;48997.75;5114122;28;20657;-74
2022/08/22 02:57:53;;;;;;;18.87;13.90;;;;;;;-141.28;100.00;48980.09;5108473;28;20199;-75
2022/08/22 03:00:27;;;;;;;17.23;13.27;;;;;;;-141.28;100.00;48968.31;5094590;28;20653;-75
2022/08/22 03:03:06;;;;;;;18.57;13.73;;;;;;;-141.28;100.00;48882.00;5089440;28;20617;-75
2022/08/22 03:05:47;;;;;;;18.10;12.93;;;;;;;-141.28;100.00;48901.59;5113453;28;20579;-75
2022/08/22 03:08:24;;;;;;;19.10;13.17;;;;;;;-141.28;100.00;48968.31;5103599;28;20227;-75
2022/08/22 03:11:04;;;;;;;18.90;13.57;;;;;;;-141.28;100.00;48972.25;5100435;28;20226;-76
2022/08/22 03:13:41;;;;;;;18.37;13.77;;;;;;;-141.28;100.00;48997.75;5099807;28;20238;-74
2022/08/22 03:16:16;;;;;;;19.03;14.07;;;;;;;-141.28;100.00;48976.16;5094535;28;20195;-74
2022/08/22 03:18:56;;;;;;;17.57;13.20;;;;;;;-141.28;100.00;48929.06;5107525;28;20206;-75
2022/08/22 03:21:29;;;;;;;24.17;15.57;;;;;;;-141.28;100.00;48956.53;5094378;28;20261;-74
2022/08/22 03:24:03;;;;;;;21.27;14.80;;;;;;;-141.28;100.00;48913.38;5095613;28;20196;-77
2022/08/22 03:26:41;;;;;;;19.40;14.47;;;;;;;-141.28;100.00;48925.16;5094050;28;20195;-75
2022/08/22 03:29:17;;;;;;;27.13;15.63;;;;;;;-141.28;100.00;48938.88;5093960;28;20223;-76
2022/08/22 03:32:10;;;;;;;22.17;15.47;;;;;;;-141.28;100.00;49029.13;5093851;28;20195;-75
2022/08/22 03:34:38;;;;;;;20.43;14.13;;;;;;;-141.28;100.00;48976.16;5108013;28;20221;-75
2022/08/22 03:37:15;;;;;;;20.30;14.13;;;;;;;-141.28;100.00;48940.84;5113928;28;20201;-74
2022/08/22 03:39:50;;;;;;;20.87;14.63;;;;;;;-141.28;100.00;48907.50;5097881;28;20199;-77
2022/08/22 03:42:59;;;;;;;22.00;14.53;;;;;;;-141.28;100.00;48987.94;5094007;28;20210;-76
2022/08/22 03:46:12;;;;;;;25.00;15.23;;;;;;;-141.28;100.00;49086.03;5094069;28;20240;-76
2022/08/22 03:49:10;;;;;;;20.50;14.53;;;;;;;-141.28;100.00;49089.97;5084072;28;21365;-74
2022/08/22 03:51:55;;;;;;;22.40;15.20;;;;;;;-141.28;100.00;48980.09;5097929;28;20231;-76
2022/08/22 03:54:57;;;;;;;20.83;15.23;;;;;;;-141.28;100.00;48991.84;5089326;28;20649;-74
2022/08/22 03:58:05;;;;;;;23.37;14.37;;;;;;;-141.28;100.00;48976.16;5093506;28;20668;-74
2022/08/22 04:01:03;;;;;;;20.60;14.23;;;;;;;-141.28;100.00;49031.09;5098344;28;20211;-76
2022/08/22 04:04:12;;;;;;;21.00;14.80;;;;;;;-141.28;100.00;49011.47;5098061;28;20707;-76
2022/08/22 04:07:10;;;;;;;19.40;14.50;;;;;;;-141.28;100.00;48972.25;5108424;28;20230;-75
2022/08/22 04:10:12;;;;;;;21.97;15.47;;;;;;;-141.28;100.00;48984.00;5099292;28;20223;-75
2022/08/22 04:12:58;;;;;;;21.10;14.27;;;;;;;-141.28;100.00;48927.13;5105247;28;20198;-74
2022/08/22 04:15:39;;;;;;;21.43;14.40;;;;;;;-141.28;100.00;48854.53;5113158;28;20194;-76
2022/08/22 04:18:39;;;;;;;25.20;14.70;;;;;;;-141.28;100.00;48887.88;5099364;28;20203;-75
2022/08/22 04:21:26;;;;;;;18.67;13.83;;;;;;;-141.28;100.00;48944.78;5071416;28;20198;-73
2022/08/22 04:24:12;;;;;;;22.07;13.67;;;;;;;-141.28;100.00;48905.53;5112661;28;20197;-75
2022/08/22 04:26:46;;;;;;;20.80;14.07;;;;;;;-141.28;100.00;48868.25;5098852;28;20195;-75
2022/08/22 04:29:33;;;;;;;19.70;13.63;;;;;;;-141.28;100.00;48842.75;5100910;28;20278;-74
2022/08/22 04:32:07;;;;;;;19.80;13.63;;;;;;;-141.28;100.00;48954.59;5081097;28;20222;-75
2022/08/22 04:34:39;;;;;;;21.10;14.37;;;;;;;-141.28;100.00;48862.38;5074514;28;20223;-76
2022/08/22 04:37:14;;;;;;;21.20;14.67;;;;;;;-141.28;100.00;48876.09;5092652;28;20196;-74
2022/08/22 04:39:55;;;;;;;22.93;14.60;;;;;;;-141.28;100.00;48905.53;5092644;28;20206;-75
2022/08/22 04:42:31;;;;;;;20.63;13.40;;;;;;;-141.28;100.00;48952.63;5092530;28;20200;-75
2022/08/22 04:45:05;;;;;;;20.27;14.20;;;;;;;-141.28;100.00;48940.84;5092881;28;20206;-74
2022/08/22 04:47:37;;;;;;;19.97;14.63;;;;;;;-141.28;100.00;48956.53;5092883;28;20202;-77
2022/08/22 04:50:15;;;;;;;17.77;13.23;;;;;;;-141.28;100.00;48978.13;5092408;28;20702;-77
2022/08/22 04:53:02;;;;;;;20.67;13.57;;;;;;;-141.28;100.00;49074.25;5096788;28;20247;-75
2022/08/22 04:55:36;;;;;;;18.57;13.73;;;;;;;-141.28;100.00;49103.69;5098320;28;20533;-74
2022/08/22 04:58:29;;;;;;;18.53;12.67;;;;;;;-141.28;100.00;49176.28;5103169;28;20221;-77
2022/08/22 05:01:06;;;;;;;18.93;12.80;;;;;;;-141.28;100.00;49140.97;5092189;28;20195;-75
2022/08/22 05:03:36;;;;;;;19.67;12.40;;;;;;;-141.28;100.00;49164.53;5105574;28;20658;-73
2022/08/22 05:06:08;;;;;;;24.87;12.93;;;;;;;-141.28;100.00;49174.34;5104066;28;20202;-75
2022/08/22 05:08:40;;;;;;;17.83;13.50;;;;;;;-141.28;100.00;49221.41;5098051;28;20214;-76
2022/08/22 05:11:10;;;;;;;17.00;12.17;;;;;;;-141.28;100.00;49258.69;5112128;28;20194;-75
2022/08/22 05:13:43;;;;;;;18.80;12.67;;;;;;;-141.28;100.00;49282.25;5096609;28;20250;-74
2022/08/22 05:16:14;;;;;;;19.27;13.77;;;;;;;-141.28;100.00;49294.03;5092107;28;20253;-76
2022/08/22 05:18:47;;;;;;;20.27;13.03;;;;;;;-141.28;100.00;49301.88;5091620;28;20640;-75
2022/08/22 05:21:17;;;;;;;18.47;13.07;;;;;;;-141.28;100.00;49254.78;5105871;28;20187;-76
2022/08/22 05:23:51;;;;;;;24.00;13.13;;;;;;;-141.28;100.00;49307.75;5091769;28;20207;-75
2022/08/22 05:26:20;;;;;;;19.17;13.13;;;;;;;-141.28;100.00;49325.41;5106947;28;20198;-76
2022/08/22 05:28:49;;;;;;;20.67;14.20;;;;;;;-141.28;100.00;49348.97;5104957;28;20230;-73
2022/08/22 05:31:23;;;;;;;21.13;13.67;;;;;;;-141.28;100.00;49364.66;5104534;28;20195;-76
2022/08/22 05:33:53;;;;;;;26.53;14.90;;;;;;;-141.28;100.00;49451.00;5100353;28;20706;-75
2022/08/22 05:36:25;;;;;;;25.03;14.10;;;;;;;-141.28;100.00;49474.53;5078184;28;20191;-76
2022/08/22 05:38:59;;;;;;;22.87;14.07;;;;;;;-141.28;100.00;49488.28;5105510;28;20654;-75
2022/08/22 05:41:30;;;;;;;30.57;15.13;;;;;;;-141.28;100.00;49541.25;5094608;28;20206;-75
2022/08/22 05:43:58;;;;;;;26.43;15.23;;;;;;;-141.28;100.00;49578.56;5098832;28;20251;-76
2022/08/22 05:46:39;;;;;;;24.27;14.20;;;;;;;-141.28;100.00;49631.53;5106854;28;20203;-74
2022/08/22 05:49:17;;;;;;;22.17;13.73;;;;;;;-141.28;100.00;49784.59;5091255;28;20229;-76
2022/08/22 05:51:53;;;;;;;21.27;13.63;;;;;;;-141.28;100.00;49814.03;5100224;28;20230;-75
2022/08/22 05:54:28;;;;;;;24.03;14.33;;;;;;;-141.28;100.00;49902.34;5094271;28;20352;-76
2022/08/22 05:57:08;;;;;;;21.73;14.10;;;;;;;-141.28;100.00;49996.56;5105077;28;20289;-75
2022/08/22 05:59:41;;;;;;;21.87;14.67;;;;;;;-141.28;100.00;50063.28;5091392;28;20201;-76
2022/08/22 06:02:17;;;;;;;22.17;13.97;;;;;;;-141.28;100.00;50082.91;5090943;28;20253;-76
2022/08/22 06:04:51;;;;;;;20.77;13.37;;;;;;;-141.28;100.00;50184.97;5091613;28;20218;-77
2022/08/22 06:07:24;;;;;;;22.03;14.80;;;;;;;-141.28;100.00;50249.75;5104097;28;20662;-74
2022/08/22 06:10:08;;;;;;;20.57;14.07;;;;;;;-141.28;100.00;50471.53;5090963;28;20721;-75
2022/08/22 06:12:39;;;;;;;18.60;13.63;;;;;;;-141.28;100.00;50528.47;5105076;28;20222;-75
2022/08/22 06:15:15;;;;;;;20.30;13.17;;;;;;;-141.28;100.00;50742.41;5104384;28;20260;-77
2022/08/22 06:17:48;;;;;;;19.50;14.20;;;;;;;-141.28;100.00;50813.09;5090782;28;20210;-77
2022/08/22 06:20:29;;;;;;;23.83;13.17;;;;;;;-141.28;100.00;50934.81;5106905;28;20693;-74
2022/08/22 06:23:00;;;;;;;20.17;13.67;;;;;;;-141.28;100.00;50978.00;5106602;28;20195;-75
2022/08/22 06:25:32;;;;;;;21.17;12.63;;;;;;;-141.28;100.00;51029.03;5110389;28;20207;-76
2022/08/22 06:28:06;;;;;;;16.90;12.60;;;;;;;-141.28;100.00;51007.44;5105521;28;20241;-74
2022/08/22 06:30:35;;;;;;;15.50;12.00;;;;;;;-141.28;100.00;51032.97;5090586;28;20207;-74
2022/08/22 06:33:06;;;;;;;17.20;10.90;;;;;;;-141.28;100.00;51064.38;5091154;28;20225;-76
2022/08/22 06:38:28;;;;;;;12.23;10.17;;;;;;;-141.28;100.00;51270.50;5049469;28;20203;-75
2022/08/22 06:40:59;;;;;;;13.37;9.90;;;;;;;-141.28;100.00;51231.25;5091178;28;20199;-75
2022/08/22 06:43:37;;;;;;;17.97;11.20;;;;;;;-141.28;100.00;51370.66;5098050;28;20641;-75
2022/08/22 06:46:06;;;;;;;22.83;10.83;;;;;;;-141.28;100.00;51311.75;5095188;28;20203;-73
2022/08/22 06:48:35;;;;;;;27.73;11.73;;;;;;;-141.28;100.00;51219.47;5090441;28;20234;-76
2022/08/22 06:51:07;;;;;;;19.57;11.07;;;;;;;-141.28;100.00;51284.25;5097904;28;20227;-75
2022/08/22 06:53:38;;;;;;;24.87;10.83;;;;;;;-141.28;100.00;51370.66;5095806;28;20264;-76
2022/08/22 06:56:08;;;;;;;16.97;9.87;;;;;;;-141.28;100.00;51460.97;5090573;28;20200;-75
2022/08/22 06:58:42;;;;;;;12.80;9.37;;;;;;;-141.28;100.00;51567.00;5090552;28;20215;-75
2022/08/22 07:01:14;;;;;;;14.90;9.67;;;;;;;-141.28;100.00;51834.03;5090568;28;20260;-75
2022/08/22 07:03:44;;;;;;;12.97;9.90;;;;;;;-141.28;100.00;51926.34;5090220;28;20203;-74
2022/08/22 07:06:16;;;;;;;25.07;10.43;;;;;;;-141.28;100.00;51951.84;5090621;28;20199;-76
2022/08/22 07:08:44;;;;;;;13.33;9.77;;;;;;;-141.28;100.00;52010.78;5095103;28;20222;-75
2022/08/22 07:11:17;;;;;;;10.73;8.90;;;;;;;-141.28;100.00;51932.22;5099703;28;20203;-75
2022/08/22 07:13:51;;;;;;;13.80;9.33;;;;;;;-141.28;100.00;52061.81;5090286;28;20206;-74
2022/08/22 07:16:29;;;;;;;13.13;8.57;;;;;;;-141.28;100.00;52277.84;5103951;28;20195;-75
2022/08/22 07:18:56;;;;;;;11.63;8.70;;;;;;;-141.28;100.00;52234.66;5078789;28;20203;-75
2022/08/22 07:21:27;;;;;;;17.10;8.87;;;;;;;-141.28;100.00;52073.63;5105134;28;20672;-74
2022/08/22 07:23:55;;;;;;;14.40;8.87;;;;;;;-141.28;100.00;51731.94;5101390;28;20212;-75
2022/08/22 07:26:31;;;;;;;11.70;8.27;;;;;;;-141.28;100.00;51649.47;5085366;28;20344;-74
2022/08/22 07:29:05;;;;;;;10.07;7.90;;;;;;;-141.28;100.00;51594.47;5093025;28;20609;-74
2022/08/22 07:31:37;;;;;;;9.83;8.70;;;;;;;-141.28;100.00;51531.66;5111877;28;20199;-77
2022/08/22 07:34:27;;;;;;;10.33;8.10;;;;;;;-141.28;100.00;51578.78;5100138;28;20223;-75
2022/08/22 07:37:02;;;;;;;11.07;7.70;;;;;;;-141.28;100.00;51537.53;5077140;28;20214;-75
2022/08/22 07:39:36;;;;;;;14.50;8.10;;;;;;;-141.28;100.00;51429.53;5092486;28;20236;-75
2022/08/22 07:42:12;;;;;;;15.90;8.67;;;;;;;-141.28;100.00;51417.78;5093962;28;20203;-74
2022/08/22 07:44:57;;;;;;;11.20;8.43;;;;;;;-141.28;100.00;51390.28;5093841;28;20200;-75
2022/08/22 07:47:31;;;;;;;12.53;8.40;;;;;;;-141.28;100.00;51398.13;5107426;28;20622;-78
2022/08/22 07:50:02;;;;;;;13.03;8.43;;;;;;;-141.28;100.00;51372.59;5093698;28;20225;-74
2022/08/22 07:52:39;;;;;;;15.10;7.80;;;;;;;-141.28;100.00;51347.09;5095053;28;20263;-76
2022/08/22 07:55:15;;;;;;;13.10;7.83;;;;;;;-141.28;100.00;51370.66;5103498;28;20292;-76
2022/08/22 07:57:53;;;;;;;11.53;8.20;;;;;;;-141.28;100.00;51311.75;5093565;28;20666;-74
2022/08/22 08:00:24;;;;;;;11.20;8.33;;;;;;;-141.28;100.00;51301.94;5094204;28;20207;-75
2022/08/22 08:02:55;;;;;;;14.43;8.50;;;;;;;-141.28;100.00;51258.72;5094239;28;20197;-76
2022/08/22 08:05:34;;;;;;;13.13;8.17;;;;;;;-141.28;100.00;51250.88;5111608;28;20729;-76
2022/08/22 08:08:07;;;;;;;11.83;8.33;;;;;;;-141.28;100.00;51288.19;5113185;28;20659;-78
2022/08/22 08:10:39;;;;;;;14.07;8.50;;;;;;;-141.28;100.00;51205.72;5104351;28;20250;-74
2022/08/22 08:13:13;;;;;;;13.40;9.03;;;;;;;-141.28;100.00;51237.13;5106560;28;20200;-75
2022/08/22 08:15:45;;;;;;;14.60;9.53;;;;;;;-141.28;100.00;51288.19;5104184;28;20680;-75
2022/08/22 08:18:18;;;;;;;21.40;9.67;;;;;;;-141.28;100.00;51270.50;5099747;28;20657;-76
2022/08/22 08:20:52;;;;;;;19.83;9.63;;;;;;;-141.28;100.00;51292.13;5100279;28;20282;-75
2022/08/22 08:23:20;;;;;;;15.63;8.93;;;;;;;-141.28;100.00;51250.88;5093359;28;20195;-73
2022/08/22 08:25:55;;;;;;;15.50;8.80;;;;;;;-141.28;100.00;51237.13;5092794;28;20191;-75
2022/08/22 08:28:36;;;;;;;12.27;9.27;;;;;;;-141.28;100.00;51197.88;5093307;28;20240;-74
2022/08/22 08:31:13;;;;;;;14.73;8.97;;;;;;;-141.28;100.00;51260.69;5092722;28;20315;-75
2022/08/22 08:33:44;;;;;;;11.90;8.77;;;;;;;-141.28;100.00;51221.44;5093011;28;20715;-75
2022/08/22 08:36:25;;;;;;;15.03;8.83;;;;;;;-141.28;100.00;51229.28;5093283;28;20196;-75
2022/08/22 08:39:00;;;;;;;14.87;9.27;;;;;;;-141.28;100.00;51250.88;5098341;28;20233;-77
2022/08/22 08:41:52;;;;;;;12.57;8.53;;;;;;;-141.28;100.00;51315.66;5099937;28;20190;-77
2022/08/22 08:44:37;;;;;;;10.87;8.80;;;;;;;-141.28;100.00;51476.66;5097314;28;20206;-74
2022/08/22 08:47:24;;;;;;;11.50;8.60;;;;;;;-141.28;100.00;51527.72;5099579;28;20203;-75
2022/08/22 08:50:14;;;;;;;15.77;8.33;;;;;;;-141.28;100.00;51567.00;5095719;28;20215;-74
2022/08/22 08:53:12;;;;;;;10.97;8.80;;;;;;;-141.28;100.00;51574.84;5096119;28;20201;-76
2022/08/22 08:55:50;;;;;;;12.47;9.00;;;;;;;-141.28;100.00;51510.06;5109482;28;20218;-75
2022/08/22 08:58:34;;;;;;;28.00;9.57;;;;;;;-141.28;100.00;51535.56;5101268;28;20232;-75
2022/08/22 09:01:34;;;;;;;12.47;9.33;;;;;;;-141.28;100.00;51500.22;5112110;28;20260;-73
2022/08/22 09:04:48;;;;;;;12.23;9.53;;;;;;;-141.28;100.00;51625.91;5110749;28;20263;-76
2022/08/22 09:07:47;;;;;;;9.83;7.90;;;;;;;-141.28;100.00;51598.41;4989731;28;20209;-75
2022/08/22 09:10:49;;;;;;;12.63;8.17;;;;;;;-141.28;100.00;51586.63;5093514;28;20234;-74
2022/08/22 09:13:46;;;;;;;11.57;8.03;;;;;;;-141.28;100.00;51637.69;5098149;28;20225;-74
2022/08/22 09:16:34;;;;;;;16.83;8.30;;;;;;;-141.28;100.00;51625.91;5077108;28;20196;-75
2022/08/22 09:19:39;;;;;;;10.93;8.23;;;;;;;-141.28;100.00;51563.06;5110070;28;20260;-75
2022/08/22 09:22:27;;;;;;;13.47;8.10;;;;;;;-141.28;100.00;51700.50;5066710;28;20199;-74
2022/08/22 09:25:25;;;;;;;17.73;8.67;;;;;;;-141.28;100.00;51576.81;5105078;28;20615;-75
2022/08/22 09:28:01;;;;;;;14.97;8.43;;;;;;;-141.28;100.00;51547.34;5069719;28;20245;-75
2022/08/22 09:30:45;;;;;;;11.07;7.80;;;;;;;-141.28;100.00;51590.56;5114638;28;20257;-74
2022/08/22 09:33:18;;;;;;;12.10;7.87;;;;;;;-141.28;100.00;51676.94;5111068;28;20657;-76
2022/08/22 09:35:56;;;;;;;9.50;7.87;;;;;;;-141.28;100.00;51637.69;5111495;28;20213;-75
2022/08/22 09:38:33;;;;;;;11.73;8.37;;;;;;;-141.28;100.00;51747.63;5098176;28;20191;-75
2022/08/22 09:41:13;;;;;;;12.47;7.97;;;;;;;-141.28;100.00;51822.25;5098552;28;20272;-76
2022/08/22 09:43:44;;;;;;;11.60;7.93;;;;;;;-141.28;100.00;51790.84;5091566;28;20677;-75
2022/08/22 09:46:22;;;;;;;13.20;7.40;;;;;;;-141.28;100.00;51885.09;5091181;28;20203;-74
2022/08/22 09:49:01;;;;;;;13.73;7.90;;;;;;;-141.28;100.00;51892.94;5091362;28;20197;-74
2022/08/22 09:51:39;;;;;;;15.30;7.67;;;;;;;-141.28;100.00;51959.72;5091491;28;20233;-76
2022/08/22 09:54:29;;;;;;;10.00;7.50;;;;;;;-141.28;100.00;51995.06;5091418;28;20202;-76
2022/08/22 09:57:17;;;;;;;9.57;7.37;;;;;;;-141.28;100.00;52010.78;5079179;28;20225;-78
2022/08/22 10:00:21;;;;;;;9.93;7.50;;;;;;;-141.28;100.00;52073.63;5082521;28;20217;-76
2022/08/22 10:03:01;;;;;;;12.03;7.87;;;;;;;-141.28;100.00;52128.59;5095350;28;20191;-75
2022/08/22 10:05:44;;;;;;;10.03;7.33;;;;;;;-141.28;100.00;52085.41;5091333;28;20199;-76
2022/08/22 10:08:47;;;;;;;13.17;8.27;;;;;;;-141.28;100.00;51912.59;5077516;28;20258;-76
2022/08/22 10:11:26;;;;;;;11.43;7.77;;;;;;;-141.28;100.00;51889.03;5089288;28;20224;-76
2022/08/22 10:13:58;;;;;;;9.33;7.17;;;;;;;-141.28;100.00;51873.31;5091405;28;20572;-76
2022/08/22 10:16:48;;;;;;;12.20;7.10;;;;;;;-141.28;100.00;51987.22;5103342;28;20196;-73
2022/08/22 10:19:23;;;;;;;9.33;7.17;;;;;;;-141.28;100.00;51902.75;5090164;28;20199;-74
2022/08/22 10:22:20;;;;;;;10.37;7.30;;;;;;;-141.28;100.00;51830.09;5111170;28;20277;-77
2022/08/22 10:25:06;;;;;;;8.77;7.30;;;;;;;-141.28;100.00;51716.22;5081635;28;20286;-74
2022/08/22 10:27:45;;;;;;;14.20;7.90;;;;;;;-141.28;100.00;51686.75;5110002;28;20200;-75
2022/08/22 10:30:19;;;;;;;10.77;7.53;;;;;;;-141.28;100.00;51718.19;5096967;28;20220;-75
2022/08/22 10:32:57;;;;;;;10.07;8.00;;;;;;;-141.28;100.00;51663.19;5101538;28;20647;-75
2022/08/22 10:35:29;;;;;;;11.77;7.30;;;;;;;-141.28;100.00;51625.91;5090262;28;20219;-75
2022/08/22 10:38:07;;;;;;;10.00;7.73;;;;;;;-141.28;100.00;51676.94;5102390;28;20219;-76
2022/08/22 10:40:39;;;;;;;8.00;7.23;;;;;;;-141.28;100.00;51637.69;5100217;28;20222;-74
2022/08/22 10:43:13;;;;;;;7.70;7.00;;;;;;;-141.28;100.00;51610.19;5095126;28;20196;-76
2022/08/22 10:45:45;;;;;;;8.47;7.27;;;;;;;-141.28;100.00;51610.19;5098202;28;20212;-74
2022/08/22 10:48:23;;;;;;;9.67;7.70;;;;;;;-141.28;100.00;51470.78;5084634;28;20280;-75
2022/08/22 10:50:54;;;;;;;10.97;7.73;;;;;;;-141.28;100.00;51276.41;5095255;28;20711;-76
2022/08/22 10:53:33;;;;;;;8.40;7.40;;;;;;;-141.28;100.00;51201.81;5090856;28;20201;-75
2022/08/22 10:56:10;;;;;;;12.83;7.83;;;;;;;-141.28;100.00;51237.13;5090735;28;20243;-76
2022/08/22 10:58:47;;;;;;;10.57;8.27;;;;;;;-141.28;100.00;51335.31;5091076;28;20208;-76
2022/08/22 11:01:17;;;;;;;10.80;7.50;;;;;;;-141.28;100.00;51278.38;5090129;28;20205;-74
2022/08/22 11:03:55;;;;;;;14.57;8.03;;;;;;;-141.28;100.00;51256.78;5091737;28;20197;-75
2022/08/22 11:06:27;;;;;;;9.60;7.60;;;;;;;-141.28;100.00;51307.81;5110436;28;20201;-75
2022/08/22 11:09:16;;;;;;;10.33;7.40;;;;;;;-141.28;100.00;51370.66;5106004;28;20701;-76
2022/08/22 11:11:47;;;;;;;14.00;8.47;;;;;;;-141.28;100.00;51296.03;5090008;28;20237;-76
2022/08/22 11:14:46;;;;;;;10.83;7.07;;;;;;;-141.28;100.00;51264.63;5074431;28;20196;-75
2022/08/22 11:17:33;;;;;;;9.73;6.83;;;;;;;-141.28;100.00;51072.22;5107903;28;20203;-78
2022/08/22 11:20:17;;;;;;;9.90;6.67;;;;;;;-141.28;100.00;50997.63;5094153;28;20217;-76
2022/08/22 11:22:56;;;;;;;10.33;6.90;;;;;;;-141.28;100.00;50781.69;5094210;28;20294;-76
2022/08/22 11:25:47;;;;;;;8.60;6.00;;;;;;;-141.28;100.00;50703.16;5076887;28;20284;-75
2022/08/22 11:28:56;;;;;;;11.80;7.10;;;;;;;-141.28;100.00;50455.84;5103515;28;20197;-76
2022/08/22 11:31:34;;;;;;;8.93;6.77;;;;;;;-141.28;100.00;50340.03;5091338;28;20604;-75
2022/08/22 11:34:09;;;;;;;12.83;7.43;;;;;;;-141.28;100.00;50241.88;5113714;28;20227;-77
2022/08/22 11:36:40;;;;;;;9.23;6.23;;;;;;;-141.28;100.00;50220.28;5114659;28;20209;-74
2022/08/22 11:39:20;;;;;;;7.07;6.20;;;;;;;-141.28;100.00;50059.34;5095884;28;20196;-75
2022/08/22 11:41:58;;;;;;;8.07;6.20;;;;;;;-141.28;100.00;50173.19;5101538;28;20196;-75
2022/08/22 11:44:30;;;;;;;10.50;6.63;;;;;;;-141.28;100.00;50061.31;5111650;28;20206;-74
2022/08/22 11:47:07;;;;;;;11.23;6.83;;;;;;;-141.28;100.00;50263.47;5094188;28;20195;-76
2022/08/22 11:49:46;;;;;;;7.03;5.90;;;;;;;-141.28;100.00;50147.69;5093463;28;20561;-77
2022/08/22 11:52:24;;;;;;;7.87;6.27;;;;;;;-141.28;100.00;50130.00;5101274;28;20236;-75
2022/08/22 11:55:27;;;;;;;8.43;6.43;;;;;;;-141.28;100.00;50110.38;5102391;28;20197;-75
2022/08/22 11:58:02;;;;;;;13.10;7.33;;;;;;;-141.28;100.00;50131.97;5101001;28;20233;-75
2022/08/22 12:00:39;;;;;;;9.90;6.77;;;;;;;-141.28;100.00;50228.16;5109065;28;20199;-75